Time;durP1;ratioP1;P1;durP2;ratioP2;P2;SDS_P1;SDS_P2;PMS_P1;PMS_P2;Temp;Humidity;BMP_temperature;BMP_pressure;BME280_temperature;BME280_humidity;BME280_pressure;Samples;Min_cycle;Max_cycle;Signal;HPM_P1;HPM_P2
2020/12/29 10:31:53;;;;;;;;;;;;;;;;;;5077707;28;19916;-60
2020/12/29 10:34:18;;;;;;;;;;;;;;;;;;5061665;28;20331;-57
2020/12/29 10:36:44;;;;;;;;;;;;;;;;;;5058175;27;19939;-59
2020/12/29 10:39:10;;;;;;;;;;;;;;;;;;5020859;28;19964;-57
2020/12/29 10:41:36;;;;;;;;;;;;;;;;;;5022916;28;19914;-56
2020/12/29 10:44:02;;;;;;;;;;;;;;;;;;5009858;28;19987;-57
2020/12/29 10:46:28;;;;;;;;;;;;;;;;;;5006371;28;19913;-55
2020/12/29 10:48:54;;;;;;;;;;;;;;;;;;4998579;28;20386;-55
2020/12/29 10:51:20;;;;;;;;;;;;;;;;;;5015468;28;19924;-55
2020/12/29 10:53:46;;;;;;;;;;;;;;;;;;5016832;28;20317;-53
2020/12/29 10:56:11;;;;;;;;;;;;;;;;;;5012443;28;20444;-54
2020/12/29 10:58:37;;;;;;;;;;;;;;;;;;5018981;28;19917;-56
2020/12/29 11:01:03;;;;;;;;;;;;;;;;;;5013980;28;19993;-53
2020/12/29 11:03:29;;;;;;;;;;;;;;;;;;5003928;28;19997;-52
2020/12/29 11:05:55;;;;;;;;;;;;;;;;;;5003687;28;19968;-55
2020/12/29 11:08:21;;;;;;;;;;;;;;;;;;5019474;28;19936;-53
2020/12/29 11:10:47;;;;;;;;;;;;;;;;;;5015095;28;20244;-55
2020/12/29 11:13:13;;;;;;;;;;;;;;;;;;5015256;28;19932;-54
2020/12/29 11:15:38;;;;;;;;;;;;;;;;;;5008857;28;19921;-51
2020/12/29 11:18:04;;;;;;;;;;;;;;;;;;5004146;28;19925;-54
2020/12/29 11:20:30;;;;;;;;;;;;;;;;;;5003822;28;19989;-52
2020/12/29 11:22:56;;;;;;;;;;;;;;;;;;5016179;23;19929;-51
2020/12/29 11:25:22;;;;;;;;;;;;;;;;;;5020844;28;19924;-51
2020/12/29 11:27:48;;;;;;;;;;;;;;;;;;5021705;28;20363;-50
2020/12/29 11:30:14;;;;;;;;;;;;;;;;;;5022699;28;20174;-51
2020/12/29 11:32:39;;;;;;;;;;;;;;;;;;5021847;28;19917;-52
2020/12/29 11:35:05;;;;;;;;;;;;;;;;;;5018842;28;19978;-52
2020/12/29 11:37:31;;;;;;;;;;;;;;;;;;5021014;28;19917;-53
2020/12/29 11:39:57;;;;;;;;;;;;;;;;;;5013448;28;20023;-53
2020/12/29 11:42:23;;;;;;;;;;;;;;;;;;4997591;28;19933;-49
2020/12/29 11:44:49;;;;;;;;;;;;;;;;;;5006373;28;20532;-49
2020/12/29 11:47:15;;;;;;;;;;;;;;;;;;5010013;28;19914;-49
2020/12/29 11:49:41;;;;;;;;;;;;;;;;;;5009243;28;20305;-49
2020/12/29 11:52:06;;;;;;;;;;;;;;;;;;5005462;28;19925;-50
2020/12/29 11:54:32;;;;;;;;;;;;;;;;;;4993287;28;20007;-52
2020/12/29 11:56:58;;;;;;;;;;;;;;;;;;4989962;28;19914;-49
2020/12/29 11:59:24;;;;;;;;;;;;;;;;;;4990949;28;19976;-50
2020/12/29 12:01:50;;;;;;;;;;;;;;;;;;4993013;28;20293;-52
2020/12/29 12:04:16;;;;;;;;;;;;;;;;;;4998637;28;19917;-53
2020/12/29 12:06:45;;;;;;;;;;;;;;;;;;5008736;28;19921;-49
2020/12/29 12:09:12;;;;;;;;;;;;;;;;;;5008225;28;20254;-49
2020/12/29 12:11:38;;;;;;;;;;;;;;;;;;5008715;28;20369;-49
2020/12/29 12:14:03;;;;;;;;;;;;;;;;;;5005066;28;20007;-50
2020/12/29 12:16:29;;;;;;;;;;;;;;;;;;5002664;28;19913;-49
2020/12/29 12:18:55;;;;;;;;;;;;;;;;;;5009189;28;19925;-52
2020/12/29 12:21:21;;;;;;;;;;;;;;;;;;5007732;28;20339;-50
2020/12/29 12:23:47;;;;;;;;;;;;;;;;;;5004174;28;19991;-50
2020/12/29 12:26:13;;;;;;;;;;;;;;;;;;5007913;28;19909;-50
2020/12/29 12:28:39;;;;;;;;;;;;;;;;;;5008412;28;20298;-51
2020/12/29 12:31:04;;;;;;;;;;;;;;;;;;5005984;28;19918;-53
2020/12/29 12:33:30;;;;;;;;;;;;;;;;;;5005696;28;19917;-52
2020/12/29 12:35:56;;;;;;;;;;;;;;;;;;5012763;28;20277;-49
2020/12/29 12:38:22;;;;;;;;;;;;;;;;;;5011545;28;19952;-49
2020/12/29 12:40:48;;;;;;;;;;;;;;;;;;5005913;28;19918;-61
2020/12/29 12:43:14;;;;;;;;;;;;;;;;;;5006249;28;20324;-62
2020/12/29 12:45:40;;;;;;;;;;;;;;;;;;5004870;28;20000;-48
2020/12/29 12:48:05;;;;;;;;;;;;;;;;;;5005234;28;20374;-50
2020/12/29 12:50:31;;;;;;;;;;;;;;;;;;5006974;28;19961;-48
2020/12/29 12:52:57;;;;;;;;;;;;;;;;;;5007729;28;19917;-51
2020/12/29 12:55:23;;;;;;;;;;;;;;;;;;5002608;28;19983;-53
2020/12/29 12:57:49;;;;;;;;;;;;;;;;;;5003784;28;20330;-49
2020/12/29 13:00:15;;;;;;;;;;;;;;;;;;4994197;28;19929;-53
2020/12/29 13:02:41;;;;;;;;;;;;;;;;;;5007390;28;19910;-48
2020/12/29 13:05:07;;;;;;;;;;;;;;;;;;5004045;28;20322;-48
2020/12/29 13:07:33;;;;;;;;;;;;;;;;;;5007485;28;20222;-50
2020/12/29 13:09:59;;;;;;;;;;;;;;;;;;5005876;28;20362;-51
2020/12/29 13:12:25;;;;;;;;;;;;;;;;;;5006504;28;19959;-47
2020/12/29 13:14:50;;;;;;;;;;;;;;;;;;5004941;28;20372;-48
2020/12/29 13:17:19;;;;;;;;;;;;;;;;;;5003882;28;20008;-48
2020/12/29 13:19:45;;;;;;;;;;;;;;;;;;5006634;28;19992;-51
2020/12/29 13:22:10;;;;;;;;;;;;;;;;;;5005471;28;20004;-47
2020/12/29 13:24:36;;;;;;;;;;;;;;;;;;5004449;28;19940;-48
2020/12/29 13:27:02;;;;;;;;;;;;;;;;;;5006891;28;20008;-48
2020/12/29 13:29:28;;;;;;;;;;;;;;;;;;5008070;28;19925;-49
2020/12/29 13:31:54;;;;;;;;;;;;;;;;;;5002866;28;20004;-50
2020/12/29 13:34:20;;;;;;;;;;;;;;;;;;5007331;28;20326;-46
2020/12/29 13:36:46;;;;;;;;;;;;;;;;;;5006567;28;19913;-47
2020/12/29 13:39:11;;;;;;;;;;;;;;;;;;5007009;28;20017;-47
2020/12/29 13:41:37;;;;;;;;;;;;;;;;;;5006140;28;19921;-50
2020/12/29 13:44:03;;;;;;;;;;;;;;;;;;5007161;28;19913;-47
2020/12/29 13:46:29;;;;;;;;;;;;;;;;;;5002280;28;19959;-47
2020/12/29 13:48:55;;;;;;;;;;;;;;;;;;5005468;28;19952;-47
2020/12/29 13:51:21;;;;;;;;;;;;;;;;;;5002065;28;19975;-53
2020/12/29 13:53:47;;;;;;;;;;;;;;;;;;5005508;28;19913;-47
2020/12/29 13:56:13;;;;;;;;;;;;;;;;;;5003571;28;20425;-49
2020/12/29 13:58:39;;;;;;;;;;;;;;;;;;5006005;28;19929;-50
2020/12/29 14:01:05;;;;;;;;;;;;;;;;;;5004696;28;19929;-52
2020/12/29 14:03:31;;;;;;;;;;;;;;;;;;5005662;28;20393;-46
2020/12/29 14:05:56;;;;;;;;;;;;;;;;;;5000263;28;20125;-47
2020/12/29 14:08:22;;;;;;;;;;;;;;;;;;5007047;28;20335;-47
2020/12/29 14:10:48;;;;;;;;;;;;;;;;;;5004656;28;19921;-47
2020/12/29 14:13:14;;;;;;;;;;;;;;;;;;5004380;28;20369;-47
2020/12/29 14:15:40;;;;;;;;;;;;;;;;;;5005143;28;19917;-47
2020/12/29 14:18:06;;;;;;;;;;;;;;;;;;5005793;28;20261;-51
2020/12/29 14:20:32;;;;;;;;;;;;;;;;;;5004148;28;20410;-47
2020/12/29 14:22:58;;;;;;;;;;;;;;;;;;5006303;28;20473;-49
